Time;durP1;ratioP1;P1;durP2;ratioP2;P2;SDS_P1;SDS_P2;PMS_P1;PMS_P2;Temp;Humidity;BMP_temperature;BMP_pressure;BME280_temperature;BME280_humidity;BME280_pressure;Samples;Min_cycle;Max_cycle;Signal;HPM_P1;HPM_P2
2021/07/19 00:01:10;;;;;;;11.18;4.18;;;24.90;93.10;;;;;;4270203;27;20046;-76
2021/07/19 00:03:13;;;;;;;5.95;3.65;;;24.90;93.00;;;;;;4248366;27;20051;-75
2021/07/19 00:05:17;;;;;;;7.30;4.00;;;24.80;92.80;;;;;;4269373;27;20047;-75
2021/07/19 00:07:20;;;;;;;4.93;3.70;;;24.60;93.60;;;;;;4267219;27;20054;-75
2021/07/19 00:09:23;;;;;;;13.27;4.13;;;24.40;93.80;;;;;;4267478;27;20055;-75
2021/07/19 00:11:26;;;;;;;5.40;3.60;;;24.50;93.80;;;;;;4267360;27;20055;-76
2021/07/19 00:13:29;;;;;;;9.48;4.10;;;24.50;93.80;;;;;;4267463;27;20510;-75
2021/07/19 00:15:34;;;;;;;6.32;3.67;;;24.40;93.90;;;;;;4267913;27;20114;-77
2021/07/19 00:17:37;;;;;;;8.35;3.63;;;24.30;94.00;;;;;;4267215;27;20047;-76
2021/07/19 00:19:40;;;;;;;8.18;3.78;;;24.20;94.20;;;;;;4247861;27;20056;-76
2021/07/19 00:21:43;;;;;;;7.10;4.07;;;24.20;94.30;;;;;;4247818;27;20514;-76
2021/07/19 00:23:46;;;;;;;11.32;3.95;;;24.20;94.30;;;;;;4265668;27;20054;-77
2021/07/19 00:25:49;;;;;;;5.93;4.13;;;24.20;94.40;;;;;;4265530;27;20074;-75
2021/07/19 00:27:55;;;;;;;9.48;4.75;;;24.10;94.50;;;;;;4265813;27;20061;-76
2021/07/19 00:29:58;;;;;;;6.78;3.92;;;24.10;94.40;;;;;;4248040;27;20062;-76
2021/07/19 00:32:04;;;;;;;6.25;4.10;;;24.20;94.20;;;;;;4249321;27;20043;-77
2021/07/19 00:34:07;;;;;;;6.07;4.35;;;24.10;94.60;;;;;;4251300;27;20426;-76
2021/07/19 00:36:11;;;;;;;7.15;4.10;;;24.00;94.80;;;;;;4268242;27;20055;-76
2021/07/19 00:38:15;;;;;;;6.87;4.17;;;24.10;94.60;;;;;;4267981;27;20049;-75
2021/07/19 00:40:20;;;;;;;6.07;4.00;;;24.10;94.60;;;;;;4272944;27;20534;-76
2021/07/19 00:42:23;;;;;;;8.85;4.40;;;24.00;94.80;;;;;;4257670;27;20039;-77
2021/07/19 00:44:26;;;;;;;5.82;4.07;;;23.90;94.90;;;;;;4272188;27;20113;-76
2021/07/19 00:46:29;;;;;;;7.25;4.13;;;24.00;94.80;;;;;;4255905;27;20435;-75
2021/07/19 00:48:34;;;;;;;10.93;4.70;;;23.90;95.00;;;;;;4255380;27;20043;-76
2021/07/19 00:50:40;;;;;;;7.15;3.70;;;23.90;95.10;;;;;;4270909;27;20035;-76
2021/07/19 00:52:43;;;;;;;7.55;4.35;;;23.80;95.20;;;;;;4270031;27;20042;-76
2021/07/19 00:54:47;;;;;;;10.55;4.70;;;23.90;95.10;;;;;;4269017;27;20444;-76
2021/07/19 00:56:53;;;;;;;8.63;5.15;;;23.90;95.00;;;;;;4265289;27;20046;-77
2021/07/19 00:58:57;;;;;;;11.77;4.88;;;23.70;95.30;;;;;;4265564;27;20059;-75
2021/07/19 01:01:01;;;;;;;7.88;4.65;;;23.70;95.50;;;;;;4247797;27;20047;-75
2021/07/19 01:03:06;;;;;;;10.90;4.63;;;23.70;95.40;;;;;;4265146;27;20046;-76
2021/07/19 01:05:11;;;;;;;6.90;4.80;;;23.60;95.70;;;;;;4264872;27;20050;-75
2021/07/19 01:07:16;;;;;;;11.48;4.38;;;23.70;95.70;;;;;;4264667;27;20057;-75
2021/07/19 01:09:19;;;;;;;4.95;4.22;;;23.70;95.70;;;;;;4247209;27;20483;-75
2021/07/19 01:11:23;;;;;;;7.25;4.78;;;23.80;95.50;;;;;;4267702;27;20051;-76
2021/07/19 01:13:27;;;;;;;9.65;4.70;;;23.70;95.60;;;;;;4270707;27;20055;-76
2021/07/19 01:15:33;;;;;;;9.63;5.03;;;23.70;95.60;;;;;;4270173;27;20054;-76
2021/07/19 01:17:36;;;;;;;9.80;4.07;;;23.70;95.80;;;;;;4267334;27;20398;-76
2021/07/19 01:19:43;;;;;;;10.77;4.68;;;23.50;96.00;;;;;;4265291;27;20046;-76
2021/07/19 01:22:19;;;;;;;6.57;4.65;;;23.40;96.20;;;;;;4264916;27;20053;-77
2021/07/19 01:24:45;;;;;;;10.13;4.60;;;23.30;96.60;;;;;;4265478;27;20174;-75
2021/07/19 01:27:23;;;;;;;15.25;5.20;;;23.30;96.60;;;;;;4266146;27;20065;-76
2021/07/19 01:29:28;;;;;;;10.20;4.43;;;23.20;96.70;;;;;;4250008;27;20126;-76
2021/07/19 01:31:33;;;;;;;11.05;4.88;;;23.30;96.90;;;;;;4266899;27;20043;-75
2021/07/19 01:33:40;;;;;;;8.95;4.97;;;23.20;97.10;;;;;;4267696;27;20058;-76
2021/07/19 01:35:46;;;;;;;7.25;4.80;;;23.20;97.10;;;;;;4267799;27;20045;-75
2021/07/19 01:37:54;;;;;;;9.88;4.80;;;23.20;97.10;;;;;;4267095;27;20523;-76
2021/07/19 01:39:58;;;;;;;9.82;4.63;;;23.30;97.00;;;;;;4265125;27;20051;-76
2021/07/19 01:42:02;;;;;;;8.97;5.93;;;23.20;97.00;;;;;;4269632;27;20043;-75
2021/07/19 01:44:07;;;;;;;7.13;5.35;;;23.20;97.40;;;;;;4270826;27;20043;-74
2021/07/19 01:46:13;;;;;;;8.23;5.75;;;23.20;97.40;;;;;;4270355;27;20152;-77
2021/07/19 01:48:16;;;;;;;10.20;5.40;;;23.20;97.20;;;;;;4267732;27;20046;-75
2021/07/19 01:50:20;;;;;;;7.28;5.15;;;23.10;97.70;;;;;;4280739;27;20035;-76
2021/07/19 01:52:23;;;;;;;5.82;5.20;;;23.20;97.40;;;;;;4264786;27;20043;-75
2021/07/19 01:54:27;;;;;;;10.40;5.85;;;23.20;97.30;;;;;;4263681;27;20058;-77
2021/07/19 01:56:32;;;;;;;8.90;5.47;;;23.20;97.50;;;;;;4263262;27;20050;-77
2021/07/19 01:58:36;;;;;;;6.80;5.53;;;23.10;97.50;;;;;;4263839;27;20045;-76
2021/07/19 02:00:39;;;;;;;7.55;4.78;;;23.20;97.40;;;;;;4263682;27;20047;-76
2021/07/19 02:02:51;;;;;;;6.57;5.28;;;23.20;97.50;;;;;;4263286;27;20058;-76
2021/07/19 02:04:54;;;;;;;6.40;5.28;;;23.10;97.60;;;;;;4262904;27;20137;-77
2021/07/19 02:06:58;;;;;;;8.57;6.25;;;23.10;97.70;;;;;;4263734;27;20043;-75
2021/07/19 02:09:06;;;;;;;8.02;5.95;;;23.10;97.80;;;;;;4263505;27;20117;-75
2021/07/19 02:11:09;;;;;;;9.57;6.22;;;23.00;98.00;;;;;;4263525;27;20053;-77
2021/07/19 02:13:13;;;;;;;9.85;5.82;;;22.90;98.30;;;;;;4263599;27;20060;-76
2021/07/19 02:15:18;;;;;;;6.65;5.38;;;22.90;98.20;;;;;;4263115;27;20050;-78
2021/07/19 02:17:23;;;;;;;8.43;5.85;;;23.00;98.30;;;;;;4263641;27;20042;-75
2021/07/19 02:19:29;;;;;;;12.32;6.13;;;22.90;98.30;;;;;;4263499;27;20045;-75
2021/07/19 02:21:33;;;;;;;7.18;6.10;;;22.90;98.30;;;;;;4245151;27;20043;-76
2021/07/19 02:23:37;;;;;;;10.27;6.43;;;22.90;98.20;;;;;;4265673;27;20043;-76
2021/07/19 02:25:41;;;;;;;9.35;6.80;;;22.80;98.20;;;;;;4271254;27;20465;-76
2021/07/19 02:27:46;;;;;;;11.63;6.70;;;23.00;97.80;;;;;;4272739;27;20077;-76
2021/07/19 02:29:49;;;;;;;9.05;6.28;;;22.90;98.10;;;;;;4272732;27;20469;-76
2021/07/19 02:31:52;;;;;;;9.48;6.03;;;22.90;98.20;;;;;;4267984;27;20046;-76
2021/07/19 02:33:56;;;;;;;10.95;6.82;;;22.90;98.40;;;;;;4266925;27;20047;-76
2021/07/19 02:36:02;;;;;;;9.97;6.67;;;22.90;98.40;;;;;;4248466;27;20035;-75
2021/07/19 02:38:07;;;;;;;7.28;6.10;;;22.90;98.40;;;;;;4249767;27;20043;-75
2021/07/19 02:40:13;;;;;;;8.82;6.40;;;22.70;98.60;;;;;;4268642;27;20057;-76
2021/07/19 02:42:17;;;;;;;13.18;6.57;;;22.70;98.80;;;;;;4270339;27;20053;-76
2021/07/19 02:44:20;;;;;;;9.15;6.20;;;22.80;98.70;;;;;;4250942;27;20062;-77
2021/07/19 02:46:26;;;;;;;10.38;6.35;;;22.80;98.80;;;;;;4263040;27;20118;-77
2021/07/19 02:48:36;;;;;;;8.52;6.65;;;22.80;98.50;;;;;;4282171;27;20039;-76
2021/07/19 02:50:41;;;;;;;8.18;6.30;;;22.90;98.00;;;;;;4279625;27;20081;-76
2021/07/19 02:52:46;;;;;;;;;;;22.90;98.40;;;;;;4245874;27;20128;-75
2021/07/19 02:54:49;;;;;;;14.27;7.18;;;22.70;98.60;;;;;;4279592;27;19979;-76
2021/07/19 02:56:54;;;;;;;9.80;7.10;;;22.70;98.80;;;;;;4268785;27;20043;-75
2021/07/19 02:58:57;;;;;;;;;;;22.60;99.00;;;;;;4248715;27;20463;-76
2021/07/19 03:01:01;;;;;;;11.20;7.20;;;22.40;99.40;;;;;;4266371;27;19919;-76
2021/07/19 03:03:09;;;;;;;9.90;7.35;;;22.40;99.50;;;;;;4266263;27;20055;-76
2021/07/19 03:05:20;;;;;;;11.88;7.65;;;22.20;99.90;;;;;;4266240;27;20046;-76
2021/07/19 03:07:24;;;;;;;9.32;7.40;;;22.10;99.90;;;;;;4266171;27;20051;-76
2021/07/19 03:09:32;;;;;;;10.55;7.75;;;22.00;99.90;;;;;;4266485;27;20034;-78
2021/07/19 03:11:38;;;;;;;8.88;7.03;;;22.20;99.90;;;;;;4248876;27;20464;-77
2021/07/19 03:13:43;;;;;;;12.50;7.82;;;22.20;99.90;;;;;;4247890;27;20045;-75
2021/07/19 03:15:49;;;;;;;10.10;7.25;;;22.20;99.90;;;;;;4265963;27;20050;-76
2021/07/19 03:17:53;;;;;;;9.27;7.13;;;22.20;99.90;;;;;;4265783;27;20061;-76
2021/07/19 03:19:58;;;;;;;17.50;7.32;;;22.30;99.90;;;;;;4265614;27;20057;-76
2021/07/19 03:22:02;;;;;;;13.38;7.65;;;22.30;99.90;;;;;;4266166;27;20117;-75
2021/07/19 03:24:08;;;;;;;16.25;7.13;;;22.40;99.70;;;;;;4248170;27;20039;-77
2021/07/19 03:26:14;;;;;;;12.00;7.22;;;22.30;99.90;;;;;;4266033;27;20053;-76
2021/07/19 03:28:19;;;;;;;9.48;7.45;;;22.30;99.90;;;;;;4265980;27;20047;-78
2021/07/19 03:30:23;;;;;;;8.38;7.28;;;22.30;99.90;;;;;;4265806;27;20513;-78
2021/07/19 03:32:31;;;;;;;10.40;7.25;;;22.40;99.90;;;;;;4248113;27;20061;-76
2021/07/19 03:34:35;;;;;;;9.73;7.07;;;22.40;99.80;;;;;;4230747;28;20060;-76
2021/07/19 03:36:38;;;;;;;9.30;6.78;;;22.30;99.90;;;;;;4247983;27;20054;-76
2021/07/19 03:38:44;;;;;;;10.63;7.63;;;22.30;99.80;;;;;;4270888;27;20162;-76
2021/07/19 03:40:48;;;;;;;10.40;7.22;;;22.30;99.90;;;;;;4272013;27;20126;-77
2021/07/19 03:42:57;;;;;;;9.75;7.53;;;22.40;99.70;;;;;;4254069;27;20043;-76
2021/07/19 03:45:00;;;;;;;13.40;6.80;;;22.40;99.60;;;;;;4271028;27;20039;-77
2021/07/19 03:47:04;;;;;;;11.02;7.15;;;22.50;98.90;;;;;;4271826;27;20113;-76
2021/07/19 03:49:09;;;;;;;8.10;6.40;;;22.50;99.40;;;;;;4251940;27;20047;-76
2021/07/19 03:51:13;;;;;;;9.40;7.25;;;22.60;99.10;;;;;;4249109;27;20057;-76
2021/07/19 03:53:16;;;;;;;10.60;7.22;;;22.70;98.70;;;;;;4266972;27;20054;-76
2021/07/19 03:55:19;;;;;;;9.25;6.97;;;22.70;98.50;;;;;;4256811;27;20656;-77
2021/07/19 03:57:22;;;;;;;7.80;7.00;;;22.80;98.30;;;;;;4257795;27;20502;-77
2021/07/19 03:59:28;;;;;;;10.98;6.95;;;22.60;98.60;;;;;;4249034;27;20430;-76
2021/07/19 04:01:35;;;;;;;9.18;6.88;;;22.70;98.50;;;;;;4250280;27;20122;-75
2021/07/19 04:03:48;;;;;;;10.75;7.60;;;22.80;98.60;;;;;;4250737;27;20059;-77
2021/07/19 04:05:59;;;;;;;11.38;6.43;;;22.70;98.30;;;;;;4252522;27;20057;-76
2021/07/19 04:08:02;;;;;;;9.82;7.88;;;22.70;98.10;;;;;;4250226;27;20422;-76
2021/07/19 04:10:07;;;;;;;15.80;8.13;;;22.60;98.60;;;;;;4251248;27;20043;-78
2021/07/19 04:12:12;;;;;;;13.40;8.30;;;22.50;98.90;;;;;;4252189;27;20039;-76
2021/07/19 04:14:16;;;;;;;11.98;7.75;;;22.40;99.30;;;;;;4250696;27;20050;-76
2021/07/19 04:16:22;;;;;;;11.43;7.38;;;22.20;99.70;;;;;;4250019;27;20043;-79
2021/07/19 04:18:25;;;;;;;11.15;7.82;;;22.20;99.80;;;;;;4247060;27;20053;-76
2021/07/19 04:20:28;;;;;;;8.95;7.43;;;22.00;99.90;;;;;;4247272;27;20058;-76
2021/07/19 04:22:33;;;;;;;9.85;7.72;;;22.10;99.90;;;;;;4251625;27;20047;-75
2021/07/19 04:24:36;;;;;;;15.48;8.02;;;22.00;99.90;;;;;;4253568;27;20035;-76
2021/07/19 04:26:39;;;;;;;12.05;7.35;;;22.00;99.90;;;;;;4254887;27;20102;-77
2021/07/19 04:28:44;;;;;;;13.90;8.52;;;22.10;99.90;;;;;;4254599;27;20192;-75
2021/07/19 04:30:48;;;;;;;12.18;7.35;;;22.10;99.90;;;;;;4254511;27;20119;-75
2021/07/19 04:32:53;;;;;;;12.73;7.80;;;22.30;99.40;;;;;;4255399;27;20047;-77
2021/07/19 04:34:56;;;;;;;19.98;7.75;;;22.40;99.10;;;;;;4253260;27;20043;-77
2021/07/19 04:37:00;;;;;;;10.57;7.93;;;22.40;99.10;;;;;;4251245;27;20071;-76
2021/07/19 04:39:04;;;;;;;15.35;8.15;;;22.40;99.30;;;;;;4248986;27;20054;-77
2021/07/19 04:41:07;;;;;;;10.90;7.30;;;22.40;99.00;;;;;;4246679;27;20043;-76
2021/07/19 04:43:10;;;;;;;9.75;7.57;;;22.30;99.50;;;;;;4246618;27;20511;-76
2021/07/19 04:45:16;;;;;;;12.77;8.13;;;22.30;99.30;;;;;;4247959;27;20065;-76
2021/07/19 04:47:19;;;;;;;14.10;7.80;;;22.30;99.30;;;;;;4252634;27;20049;-76
2021/07/19 04:49:24;;;;;;;11.60;7.78;;;22.30;99.50;;;;;;4256651;27;20584;-76
2021/07/19 04:51:28;;;;;;;17.60;8.32;;;22.20;99.90;;;;;;4254362;27;20081;-76
2021/07/19 04:53:31;;;;;;;11.75;8.30;;;22.10;99.90;;;;;;4255546;27;20079;-76
2021/07/19 04:55:35;;;;;;;13.05;8.13;;;22.10;99.90;;;;;;4271955;27;20413;-78
2021/07/19 04:57:41;;;;;;;13.23;8.63;;;22.10;99.90;;;;;;4265826;27;20055;-76
2021/07/19 04:59:48;;;;;;;11.35;8.10;;;22.10;99.90;;;;;;4246455;27;20055;-75
2021/07/19 05:01:53;;;;;;;15.27;8.07;;;22.10;99.90;;;;;;4246398;27;20497;-75
2021/07/19 05:03:58;;;;;;;13.73;7.80;;;22.20;99.90;;;;;;4265088;27;20396;-76
2021/07/19 05:06:05;;;;;;;15.35;8.20;;;22.20;99.70;;;;;;4265209;27;20115;-76
2021/07/19 05:08:09;;;;;;;13.60;8.50;;;22.20;99.80;;;;;;4264766;27;20054;-76
2021/07/19 05:10:14;;;;;;;13.05;8.52;;;22.20;99.90;;;;;;4264403;27;20072;-75
2021/07/19 05:12:18;;;;;;;20.42;8.05;;;22.20;99.90;;;;;;4264143;27;20406;-76
2021/07/19 05:14:22;;;;;;;16.13;7.88;;;22.20;99.80;;;;;;4264591;27;20667;-75
2021/07/19 05:16:28;;;;;;;14.40;8.02;;;22.30;99.80;;;;;;4264514;27;20039;-76
2021/07/19 05:18:32;;;;;;;13.88;8.40;;;22.30;99.70;;;;;;4246548;27;20124;-76
2021/07/19 05:20:37;;;;;;;14.27;8.73;;;22.10;99.90;;;;;;4246153;27;20051;-76
2021/07/19 05:22:46;;;;;;;13.02;8.13;;;22.10;99.90;;;;;;4264337;27;20046;-76
2021/07/19 05:24:56;;;;;;;13.20;8.50;;;22.10;99.90;;;;;;4264235;27;20193;-76
2021/07/19 05:26:59;;;;;;;13.18;8.00;;;22.10;99.90;;;;;;4245995;27;20126;-76
2021/07/19 05:29:03;;;;;;;14.38;7.82;;;22.20;99.90;;;;;;4263882;27;20058;-76
2021/07/19 05:31:06;;;;;;;11.50;7.88;;;22.20;99.80;;;;;;4264678;27;20475;-76
2021/07/19 05:33:10;;;;;;;12.63;8.15;;;22.20;99.90;;;;;;4264043;27;20058;-76
2021/07/19 05:35:13;;;;;;;12.85;8.00;;;22.30;99.60;;;;;;4263880;27;20055;-75
2021/07/19 05:37:17;;;;;;;12.05;8.23;;;22.30;99.50;;;;;;4245373;27;20045;-76
2021/07/19 05:39:21;;;;;;;13.57;8.43;;;22.30;99.80;;;;;;4245074;27;20051;-74
2021/07/19 05:41:24;;;;;;;12.95;8.40;;;22.30;99.90;;;;;;4264079;27;20050;-76
2021/07/19 05:43:27;;;;;;;10.80;8.10;;;22.40;99.50;;;;;;4264815;27;20063;-75
2021/07/19 05:45:31;;;;;;;16.73;8.65;;;22.30;99.70;;;;;;4245599;27;20058;-75
2021/07/19 05:47:34;;;;;;;15.70;8.70;;;22.20;99.90;;;;;;4245843;27;20461;-76
2021/07/19 05:49:37;;;;;;;14.40;8.48;;;22.20;99.80;;;;;;4270626;27;20038;-75
2021/07/19 05:51:40;;;;;;;19.00;8.88;;;22.40;99.70;;;;;;4252227;27;20471;-77
2021/07/19 05:53:43;;;;;;;16.27;8.70;;;22.50;99.50;;;;;;4268328;27;20051;-76
2021/07/19 05:55:48;;;;;;;15.80;7.88;;;22.40;99.80;;;;;;4264011;27;20479;-75
2021/07/19 05:57:51;;;;;;;11.57;8.00;;;22.60;99.20;;;;;;4263230;27;20069;-76
2021/07/19 05:59:56;;;;;;;16.02;8.27;;;22.60;99.40;;;;;;4263926;27;20047;-76
2021/07/19 06:01:59;;;;;;;25.33;8.30;;;22.60;99.40;;;;;;4271001;27;20051;-76
2021/07/19 06:04:03;;;;;;;13.05;7.57;;;22.60;99.40;;;;;;4271017;27;20063;-76
2021/07/19 06:06:06;;;;;;;15.77;7.85;;;22.60;99.30;;;;;;4270299;27;20042;-76
2021/07/19 06:08:09;;;;;;;12.48;8.50;;;22.50;99.60;;;;;;4268622;27;20035;-76
2021/07/19 06:10:13;;;;;;;16.00;8.88;;;22.60;99.70;;;;;;4246599;27;20459;-76
2021/07/19 06:12:18;;;;;;;11.63;7.80;;;22.50;99.70;;;;;;4263296;27;20690;-76
2021/07/19 06:14:21;;;;;;;18.58;7.85;;;22.40;99.80;;;;;;4264742;27;20053;-77
2021/07/19 06:16:24;;;;;;;13.00;7.93;;;22.60;99.70;;;;;;4246410;27;20115;-76
2021/07/19 06:18:27;;;;;;;18.50;8.02;;;22.50;99.70;;;;;;4245084;27;20055;-76
2021/07/19 06:20:30;;;;;;;12.70;8.38;;;22.60;99.80;;;;;;4263365;27;20057;-76
2021/07/19 06:22:34;;;;;;;15.93;7.95;;;22.50;99.80;;;;;;4263604;27;20411;-76
2021/07/19 06:24:37;;;;;;;16.53;8.57;;;22.50;99.70;;;;;;4245323;27;20057;-76
2021/07/19 06:26:40;;;;;;;12.02;7.65;;;22.60;99.70;;;;;;4263582;27;20051;-77
2021/07/19 06:28:45;;;;;;;10.27;7.43;;;22.50;99.70;;;;;;4246896;27;20051;-77
2021/07/19 06:30:48;;;;;;;11.10;7.50;;;22.60;99.80;;;;;;4247322;27;20058;-77
2021/07/19 06:32:51;;;;;;;21.02;8.23;;;22.70;99.60;;;;;;4247400;27;20057;-76
2021/07/19 06:34:54;;;;;;;10.13;7.60;;;22.60;99.70;;;;;;4265232;27;20061;-75
2021/07/19 06:36:57;;;;;;;14.02;7.75;;;22.70;99.80;;;;;;4264958;27;20050;-75
2021/07/19 06:39:01;;;;;;;14.38;8.40;;;22.60;99.80;;;;;;4246888;27;20084;-76
2021/07/19 06:41:04;;;;;;;20.48;7.68;;;22.60;99.80;;;;;;4265991;27;20043;-77
2021/07/19 06:43:07;;;;;;;16.33;7.78;;;22.80;99.70;;;;;;4263716;27;20367;-75
2021/07/19 06:45:13;;;;;;;14.00;8.23;;;22.80;99.40;;;;;;4267507;27;20041;-77
2021/07/19 06:47:16;;;;;;;17.35;7.63;;;22.80;99.60;;;;;;4268586;27;20283;-76
2021/07/19 06:49:19;;;;;;;12.80;7.38;;;22.90;99.40;;;;;;4264255;27;20041;-77
2021/07/19 06:51:22;;;;;;;17.70;8.25;;;23.00;99.50;;;;;;4264163;27;20061;-75
2021/07/19 06:53:26;;;;;;;18.15;8.23;;;22.90;99.30;;;;;;4264097;27;20130;-76
2021/07/19 06:55:28;;;;;;;19.70;8.38;;;23.00;99.40;;;;;;4244666;27;20447;-76
2021/07/19 06:57:32;;;;;;;14.85;8.50;;;23.00;99.40;;;;;;4244655;27;20054;-78
2021/07/19 06:59:35;;;;;;;26.30;7.60;;;23.00;99.40;;;;;;4263365;27;20039;-77
2021/07/19 07:01:40;;;;;;;11.98;7.45;;;23.10;99.30;;;;;;4262946;27;20047;-76
2021/07/19 07:03:43;;;;;;;16.52;8.30;;;23.20;99.20;;;;;;4244711;27;20061;-76
2021/07/19 07:06:02;;;;;;;16.67;8.10;;;23.10;99.20;;;;;;4263311;27;20158;-77
2021/07/19 07:08:05;;;;;;;14.98;7.82;;;23.10;99.30;;;;;;4263509;27;20045;-76
2021/07/19 07:10:09;;;;;;;14.80;8.20;;;23.30;99.10;;;;;;4263493;27;20380;-77
2021/07/19 07:12:12;;;;;;;11.65;7.85;;;23.30;99.00;;;;;;4263654;27;20055;-76
2021/07/19 07:14:15;;;;;;;21.05;8.25;;;23.30;99.10;;;;;;4266100;27;20679;-77
2021/07/19 07:16:19;;;;;;;13.85;7.88;;;23.40;98.90;;;;;;4272490;27;20078;-75
2021/07/19 07:18:23;;;;;;;12.63;7.88;;;23.40;99.10;;;;;;4272069;27;20038;-76
2021/07/19 07:20:26;;;;;;;12.07;7.68;;;23.60;98.60;;;;;;4253986;27;20051;-76
2021/07/19 07:22:32;;;;;;;15.57;8.88;;;23.50;98.60;;;;;;4268277;27;20050;-76
2021/07/19 07:24:40;;;;;;;17.70;7.53;;;23.80;98.40;;;;;;4266166;27;20045;-76
2021/07/19 07:26:44;;;;;;;11.13;7.30;;;23.80;98.30;;;;;;4266320;27;20042;-77
2021/07/19 07:28:47;;;;;;;10.43;6.90;;;23.70;97.90;;;;;;4266074;27;20050;-77
2021/07/19 07:30:50;;;;;;;14.57;7.97;;;23.70;97.90;;;;;;4266034;27;20046;-76
2021/07/19 07:32:53;;;;;;;11.00;6.82;;;23.90;97.70;;;;;;4248853;27;20039;-79
2021/07/19 07:34:58;;;;;;;16.30;6.88;;;23.90;97.70;;;;;;4266072;27;20050;-77
2021/07/19 07:37:01;;;;;;;11.95;7.18;;;24.00;97.60;;;;;;4265512;27;20051;-76
2021/07/19 07:39:04;;;;;;;9.77;7.07;;;24.30;97.30;;;;;;4265659;27;20632;-77
2021/07/19 07:41:08;;;;;;;20.67;6.68;;;24.30;96.90;;;;;;4265626;27;20061;-75
2021/07/19 07:43:11;;;;;;;17.48;6.05;;;24.40;96.80;;;;;;4265752;27;20599;-76
2021/07/19 07:45:15;;;;;;;12.75;6.30;;;24.60;96.50;;;;;;4265754;27;20055;-75
2021/07/19 07:47:18;;;;;;;19.17;6.55;;;24.70;96.10;;;;;;4265602;27;20053;-76
2021/07/19 07:49:21;;;;;;;12.20;6.43;;;24.80;95.70;;;;;;4265752;27;20394;-75
2021/07/19 07:51:26;;;;;;;12.05;5.18;;;24.90;95.80;;;;;;4266768;27;20051;-76
2021/07/19 07:53:29;;;;;;;17.38;6.05;;;24.80;94.60;;;;;;4271290;27;20047;-77
2021/07/19 07:55:32;;;;;;;15.45;6.18;;;24.80;94.90;;;;;;4271325;27;20038;-78
2021/07/19 07:57:35;;;;;;;15.98;5.63;;;24.90;94.60;;;;;;4269607;27;20055;-76
2021/07/19 07:59:38;;;;;;;14.02;5.43;;;25.10;94.40;;;;;;4265501;27;20035;-75
2021/07/19 08:01:41;;;;;;;18.88;5.32;;;25.10;94.00;;;;;;4247199;27;20043;-78
2021/07/19 08:03:45;;;;;;;13.27;5.40;;;25.20;94.10;;;;;;4246802;27;20511;-76
2021/07/19 08:05:48;;;;;;;12.25;5.20;;;25.40;93.80;;;;;;4265404;27;20051;-76
2021/07/19 08:07:52;;;;;;;17.88;5.60;;;25.50;93.60;;;;;;4265813;27;20047;-76
2021/07/19 08:09:56;;;;;;;15.05;5.32;;;25.70;93.30;;;;;;4285580;27;20042;-76
2021/07/19 08:11:59;;;;;;;11.65;5.47;;;25.80;93.20;;;;;;4269061;27;20057;-76
2021/07/19 08:14:03;;;;;;;14.07;5.10;;;25.80;92.50;;;;;;4265301;27;20066;-76
2021/07/19 08:16:06;;;;;;;18.88;4.93;;;26.00;93.10;;;;;;4264915;27;20047;-76
2021/07/19 08:18:09;;;;;;;17.00;5.25;;;26.10;92.80;;;;;;4264855;27;20065;-76
2021/07/19 08:20:14;;;;;;;19.50;4.60;;;26.20;92.20;;;;;;4265306;27;20199;-76
2021/07/19 08:22:19;;;;;;;14.43;4.77;;;26.20;91.70;;;;;;4265101;27;20038;-76
2021/07/19 08:24:24;;;;;;;10.02;4.82;;;26.30;91.00;;;;;;4264722;27;20989;-76
2021/07/19 08:26:27;;;;;;;22.25;5.20;;;26.50;91.40;;;;;;4271735;27;20042;-76
2021/07/19 08:28:30;;;;;;;15.77;4.50;;;26.50;90.10;;;;;;4269925;27;20038;-76
2021/07/19 08:30:34;;;;;;;15.55;4.60;;;26.40;89.00;;;;;;4271587;27;20046;-76
2021/07/19 08:32:37;;;;;;;10.20;3.80;;;26.40;89.00;;;;;;4272012;27;20039;-76
2021/07/19 08:34:41;;;;;;;15.85;4.60;;;26.60;88.40;;;;;;4271731;27;20047;-78
2021/07/19 08:36:44;;;;;;;9.93;3.92;;;26.60;87.00;;;;;;4266969;27;20050;-78
2021/07/19 08:38:48;;;;;;;18.48;4.60;;;26.60;86.00;;;;;;4265109;27;20055;-78
2021/07/19 08:40:54;;;;;;;16.70;4.17;;;26.70;87.10;;;;;;4266034;27;20057;-76
2021/07/19 08:43:13;;;;;;;14.50;4.30;;;26.80;86.40;;;;;;4268008;27;20825;-79
2021/07/19 08:45:16;;;;;;;15.10;4.22;;;27.00;86.00;;;;;;4248300;27;20142;-75
2021/07/19 08:47:20;;;;;;;18.48;4.90;;;26.90;86.90;;;;;;4267860;27;20398;-76
2021/07/19 08:49:23;;;;;;;14.57;4.25;;;27.00;85.80;;;;;;4270219;27;20110;-77
2021/07/19 08:51:27;;;;;;;13.57;3.80;;;27.10;86.30;;;;;;4271649;27;20073;-77
2021/07/19 08:53:33;;;;;;;15.43;4.25;;;27.10;86.00;;;;;;4256352;27;20573;-76
2021/07/19 08:55:38;;;;;;;19.00;4.03;;;27.10;84.90;;;;;;4260159;27;20138;-77
2021/07/19 08:57:46;;;;;;;20.77;4.40;;;27.10;84.40;;;;;;4259588;27;20055;-77
2021/07/19 08:59:49;;;;;;;15.23;4.90;;;27.10;84.10;;;;;;4257726;27;20358;-77
2021/07/19 09:01:52;;;;;;;11.85;4.05;;;27.10;83.40;;;;;;4255435;27;20055;-77
2021/07/19 09:03:56;;;;;;;15.82;4.03;;;27.20;84.50;;;;;;4250506;27;20057;-74
2021/07/19 09:05:59;;;;;;;16.92;4.80;;;27.30;84.20;;;;;;4248213;27;20128;-75
2021/07/19 09:08:05;;;;;;;11.07;3.70;;;27.40;83.60;;;;;;4250126;27;20075;-74
2021/07/19 09:10:10;;;;;;;9.35;3.88;;;27.30;82.10;;;;;;4252954;27;20051;-76
2021/07/19 09:12:13;;;;;;;17.33;3.72;;;27.50;83.20;;;;;;4252428;27;20053;-76
2021/07/19 09:14:17;;;;;;;11.68;3.97;;;27.40;81.80;;;;;;4248548;27;20054;-76
2021/07/19 09:16:20;;;;;;;10.40;4.10;;;27.40;82.80;;;;;;4248161;27;20051;-77
2021/07/19 09:18:25;;;;;;;11.57;4.40;;;27.60;84.00;;;;;;4252662;27;20059;-75
2021/07/19 09:20:30;;;;;;;9.65;4.13;;;27.70;82.00;;;;;;4253619;27;20066;-76
2021/07/19 09:22:35;;;;;;;10.60;3.45;;;27.50;81.40;;;;;;4254366;27;20047;-76
2021/07/19 09:24:38;;;;;;;13.18;3.90;;;27.50;81.50;;;;;;4252854;27;20492;-75
2021/07/19 09:26:43;;;;;;;14.98;4.22;;;27.50;81.40;;;;;;4252871;27;20063;-77
2021/07/19 09:28:56;;;;;;;11.10;4.45;;;27.70;81.40;;;;;;4253414;27;20051;-78
2021/07/19 09:31:06;;;;;;;12.23;3.63;;;27.80;80.90;;;;;;4252981;27;20047;-77
2021/07/19 09:33:10;;;;;;;11.65;3.92;;;28.00;81.10;;;;;;4253482;27;20054;-76
2021/07/19 09:35:13;;;;;;;8.45;3.50;;;27.80;79.60;;;;;;4253093;27;20107;-78
2021/07/19 09:37:17;;;;;;;12.52;3.75;;;27.70;80.30;;;;;;4256634;27;20047;-76
2021/07/19 09:39:21;;;;;;;14.75;4.47;;;27.80;79.80;;;;;;4254078;27;20047;-77
2021/07/19 09:41:24;;;;;;;12.23;3.90;;;27.90;79.60;;;;;;4248831;27;20055;-76
2021/07/19 09:43:30;;;;;;;9.10;3.75;;;28.10;80.70;;;;;;4248237;27;20503;-75
2021/07/19 09:45:33;;;;;;;13.27;3.92;;;28.20;79.40;;;;;;4253641;27;20050;-74
2021/07/19 09:47:40;;;;;;;15.27;4.13;;;28.30;79.60;;;;;;4253664;27;20047;-75
2021/07/19 09:49:44;;;;;;;9.82;3.85;;;28.40;77.80;;;;;;4253442;27;20042;-75
2021/07/19 09:51:57;;;;;;;12.60;4.10;;;28.40;77.80;;;;;;4251002;27;20567;-77
2021/07/19 09:54:09;;;;;;;14.45;4.13;;;28.60;77.70;;;;;;4254788;27;20051;-78
2021/07/19 09:56:15;;;;;;;12.50;4.43;;;28.60;77.70;;;;;;4247914;27;20043;-76
2021/07/19 09:58:22;;;;;;;14.02;4.45;;;28.70;77.10;;;;;;4252433;27;20047;-75
2021/07/19 10:00:27;;;;;;;11.82;3.85;;;28.80;78.00;;;;;;4276915;27;20122;-75
2021/07/19 10:02:32;;;;;;;17.38;3.92;;;28.90;77.60;;;;;;4277451;27;20050;-80
2021/07/19 10:04:43;;;;;;;7.32;4.15;;;28.80;77.20;;;;;;4275661;27;20057;-77
2021/07/19 10:06:47;;;;;;;14.18;3.78;;;28.70;76.30;;;;;;4269584;27;20051;-75
2021/07/19 10:08:55;;;;;;;10.05;3.90;;;28.70;76.40;;;;;;4270349;27;20050;-75
2021/07/19 10:10:58;;;;;;;11.30;3.92;;;28.80;76.10;;;;;;4270222;27;20062;-75
2021/07/19 10:13:02;;;;;;;20.20;4.25;;;28.70;75.60;;;;;;4270199;27;20058;-76
2021/07/19 10:15:07;;;;;;;10.90;3.83;;;28.90;76.10;;;;;;4269946;27;20053;-76
2021/07/19 10:17:25;;;;;;;11.73;3.78;;;29.00;75.20;;;;;;4275681;27;20045;-75
2021/07/19 10:19:28;;;;;;;9.32;3.78;;;28.90;75.60;;;;;;4280583;27;20051;-76
2021/07/19 10:21:34;;;;;;;9.40;3.90;;;29.00;74.10;;;;;;4270328;27;20051;-76
2021/07/19 10:23:39;;;;;;;14.20;3.85;;;28.80;73.40;;;;;;4270094;27;20133;-76
2021/07/19 10:25:42;;;;;;;10.98;3.58;;;28.80;74.20;;;;;;4269767;27;20450;-77
2021/07/19 10:27:46;;;;;;;9.55;3.50;;;28.80;74.20;;;;;;4265797;27;20055;-75
2021/07/19 10:29:50;;;;;;;20.23;4.07;;;28.90;73.80;;;;;;4269280;27;20052;-75
2021/07/19 10:31:53;;;;;;;13.60;4.40;;;28.80;72.70;;;;;;4270113;27;20447;-74
2021/07/19 10:33:57;;;;;;;9.73;4.10;;;28.60;72.60;;;;;;4269438;27;20065;-76
2021/07/19 10:36:02;;;;;;;13.50;3.78;;;28.60;73.20;;;;;;4251094;27;20088;-77
2021/07/19 10:38:12;;;;;;;9.65;4.22;;;28.80;74.10;;;;;;4268861;27;20061;-75
2021/07/19 10:40:20;;;;;;;12.43;4.10;;;28.90;73.80;;;;;;4268471;27;20282;-75
2021/07/19 10:42:34;;;;;;;11.60;4.07;;;28.80;73.40;;;;;;4269046;27;20053;-76
2021/07/19 10:44:40;;;;;;;9.87;3.67;;;29.00;73.80;;;;;;4267418;27;20078;-76